Time;durP1;ratioP1;P1;durP2;ratioP2;P2;SDS_P1;SDS_P2;PMS_P1;PMS_P2;Temp;Humidity;BMP_temperature;BMP_pressure;BME280_temperature;BME280_humidity;BME280_pressure;Samples;Min_cycle;Max_cycle;Signal;HPM_P1;HPM_P2
2020/12/26 00:01:15;;;;;;;1.40;1.05;;;5.40;86.60;;;;;;4987090;28;20050;-57
2020/12/26 00:03:41;;;;;;;2.30;1.52;;;5.40;86.50;;;;;;4986688;28;20074;-58
2020/12/26 00:06:07;;;;;;;2.58;1.40;;;5.30;86.40;;;;;;4985148;28;20161;-56
2020/12/26 00:08:35;;;;;;;2.03;1.10;;;5.40;86.50;;;;;;4989209;28;20084;-56
2020/12/26 00:11:01;;;;;;;1.58;1.20;;;5.30;86.50;;;;;;4977756;28;20109;-57
2020/12/26 00:13:27;;;;;;;2.15;1.23;;;5.40;86.60;;;;;;4990490;28;20058;-58
2020/12/26 00:15:52;;;;;;;3.28;1.50;;;5.30;86.60;;;;;;4988986;28;20023;-59
2020/12/26 00:18:18;;;;;;;2.63;1.52;;;5.30;86.50;;;;;;4988964;28;20438;-58
2020/12/26 00:20:43;;;;;;;1.40;1.10;;;5.30;86.50;;;;;;4988063;28;20205;-58
2020/12/26 00:23:09;;;;;;;2.38;1.40;;;5.30;86.50;;;;;;4989382;28;20031;-56
2020/12/26 00:25:34;;;;;;;1.63;1.42;;;5.30;86.60;;;;;;4988482;28;20030;-58
2020/12/26 00:28:00;;;;;;;1.35;1.17;;;5.30;86.70;;;;;;4989251;28;20038;-57
2020/12/26 00:30:25;;;;;;;2.88;1.50;;;5.30;86.60;;;;;;4985708;28;20041;-57
2020/12/26 00:32:51;;;;;;;1.65;1.38;;;5.30;86.60;;;;;;4987998;28;20042;-56
2020/12/26 00:35:16;;;;;;;1.88;1.50;;;5.30;86.60;;;;;;4989122;28;20034;-56
2020/12/26 00:37:42;;;;;;;3.33;1.38;;;5.30;86.60;;;;;;4990322;28;20486;-56
2020/12/26 00:40:07;;;;;;;1.38;1.05;;;5.30;86.70;;;;;;4989605;28;20030;-58
2020/12/26 00:42:33;;;;;;;2.20;1.27;;;5.20;86.70;;;;;;4989263;28;20030;-57
2020/12/26 00:44:58;;;;;;;1.80;1.25;;;5.20;86.70;;;;;;4987013;28;20136;-58
2020/12/26 00:47:24;;;;;;;1.50;1.10;;;5.20;86.70;;;;;;4988976;28;20152;-57
2020/12/26 00:49:49;;;;;;;2.28;1.20;;;5.20;86.70;;;;;;4989098;28;20494;-58
2020/12/26 00:52:15;;;;;;;1.75;1.20;;;5.20;86.80;;;;;;4989348;28;20025;-56
2020/12/26 00:54:41;;;;;;;1.35;1.10;;;5.20;86.80;;;;;;4988257;28;20034;-57
2020/12/26 00:57:06;;;;;;;1.58;1.20;;;5.20;86.80;;;;;;4985101;28;20489;-57
2020/12/26 00:59:32;;;;;;;1.60;1.15;;;5.20;86.90;;;;;;4985621;28;20030;-57
2020/12/26 01:01:57;;;;;;;2.15;1.35;;;5.20;86.90;;;;;;4988399;28;20185;-58
2020/12/26 01:04:23;;;;;;;1.58;1.48;;;5.20;86.90;;;;;;4988677;28;20022;-58
2020/12/26 01:06:53;;;;;;;1.80;1.20;;;5.20;87.00;;;;;;4989660;28;20153;-57
2020/12/26 01:09:18;;;;;;;1.75;1.25;;;5.20;86.90;;;;;;4989051;28;20026;-59
2020/12/26 01:11:44;;;;;;;1.35;1.10;;;5.10;86.90;;;;;;4986872;28;20046;-57
2020/12/26 01:14:10;;;;;;;1.67;1.10;;;5.20;87.00;;;;;;4989786;28;20190;-57
2020/12/26 01:16:35;;;;;;;1.98;1.25;;;5.20;87.10;;;;;;4989866;28;20026;-57
2020/12/26 01:19:01;;;;;;;1.10;1.00;;;5.20;87.10;;;;;;4987196;28;20386;-57
2020/12/26 01:21:26;;;;;;;1.77;1.33;;;5.10;87.10;;;;;;4987655;28;20041;-59
2020/12/26 01:23:52;;;;;;;2.17;1.20;;;5.10;87.10;;;;;;4984287;28;20063;-56
2020/12/26 01:26:17;;;;;;;2.65;1.67;;;5.10;87.00;;;;;;4988707;28;20035;-59
2020/12/26 01:28:45;;;;;;;1.98;1.52;;;5.10;87.00;;;;;;4981964;28;20038;-58
2020/12/26 01:31:12;;;;;;;2.83;1.55;;;5.10;87.10;;;;;;4966756;28;20022;-58
2020/12/26 01:33:37;;;;;;;1.35;1.25;;;5.10;87.10;;;;;;4988423;28;20168;-61
2020/12/26 01:36:03;;;;;;;1.88;1.08;;;5.10;87.10;;;;;;4988152;28;20101;-60
2020/12/26 01:38:28;;;;;;;2.08;1.38;;;5.10;87.00;;;;;;4988202;28;20490;-56
2020/12/26 01:40:54;;;;;;;2.05;1.45;;;5.00;87.10;;;;;;4983669;28;20031;-59
2020/12/26 01:43:19;;;;;;;1.50;1.08;;;5.00;87.20;;;;;;4988038;28;20033;-57
2020/12/26 01:45:45;;;;;;;1.90;1.35;;;5.00;87.20;;;;;;4988756;28;20042;-59
2020/12/26 01:48:13;;;;;;;2.33;1.35;;;5.00;87.20;;;;;;4985429;28;20033;-59
2020/12/26 01:50:39;;;;;;;2.38;1.50;;;5.00;87.30;;;;;;4962673;28;20034;-58
2020/12/26 01:53:05;;;;;;;3.80;1.58;;;5.00;87.20;;;;;;4989156;28;20034;-56
2020/12/26 01:55:30;;;;;;;1.70;1.38;;;5.00;87.20;;;;;;4983133;28;20078;-59
2020/12/26 01:57:56;;;;;;;1.40;1.30;;;5.00;87.20;;;;;;4971372;28;20053;-58
2020/12/26 02:00:21;;;;;;;1.75;1.38;;;5.00;87.30;;;;;;4988268;28;20030;-57
2020/12/26 02:02:47;;;;;;;2.90;1.35;;;4.90;87.30;;;;;;4987772;28;20034;-61
2020/12/26 02:05:14;;;;;;;2.03;1.20;;;5.00;87.30;;;;;;4986794;28;20207;-58
2020/12/26 02:07:40;;;;;;;1.30;1.20;;;5.00;87.30;;;;;;4988101;28;20106;-57
2020/12/26 02:10:06;;;;;;;2.35;1.55;;;4.90;87.20;;;;;;4990774;28;20117;-58
2020/12/26 02:12:31;;;;;;;1.85;1.17;;;4.90;87.30;;;;;;4991736;28;20065;-58
2020/12/26 02:14:57;;;;;;;1.70;1.40;;;4.90;87.20;;;;;;4988009;28;20042;-59
2020/12/26 02:17:26;;;;;;;1.23;0.90;;;4.90;87.30;;;;;;4986750;28;20121;-57
2020/12/26 02:19:51;;;;;;;3.17;1.25;;;4.90;87.20;;;;;;4981118;28;20030;-59
2020/12/26 02:22:17;;;;;;;1.42;1.27;;;4.90;87.30;;;;;;4979348;28;20448;-58
2020/12/26 02:24:42;;;;;;;1.77;1.42;;;4.90;87.30;;;;;;4975289;28;20027;-56
2020/12/26 02:27:08;;;;;;;1.67;1.58;;;4.80;87.30;;;;;;4975812;28;20435;-56
2020/12/26 02:29:33;;;;;;;2.55;1.20;;;4.80;87.30;;;;;;4972076;28;20773;-57
2020/12/26 02:31:59;;;;;;;2.10;1.30;;;4.80;87.50;;;;;;4987053;28;20031;-58
2020/12/26 02:34:24;;;;;;;2.58;1.48;;;4.80;87.40;;;;;;4975430;28;20112;-58
2020/12/26 02:36:50;;;;;;;1.30;1.20;;;4.80;87.50;;;;;;4976958;28;20117;-57
2020/12/26 02:39:15;;;;;;;1.67;1.40;;;4.80;87.30;;;;;;4975218;28;20047;-55
2020/12/26 02:41:41;;;;;;;2.47;1.60;;;4.80;87.40;;;;;;4975365;28;20408;-56
2020/12/26 02:44:06;;;;;;;1.60;1.30;;;4.80;87.40;;;;;;4981858;28;20055;-57
2020/12/26 02:46:32;;;;;;;1.15;1.00;;;4.80;87.30;;;;;;4991395;28;20045;-58
2020/12/26 02:48:57;;;;;;;2.08;1.70;;;4.80;87.30;;;;;;4978390;28;20040;-59
2020/12/26 02:51:23;;;;;;;1.98;1.40;;;4.80;87.30;;;;;;4990357;28;20109;-57
2020/12/26 02:53:48;;;;;;;1.50;1.30;;;4.80;87.20;;;;;;4972704;28;20027;-56
2020/12/26 02:56:14;;;;;;;1.80;1.48;;;4.80;87.10;;;;;;4974371;28;20050;-58
2020/12/26 02:58:40;;;;;;;1.95;1.60;;;4.80;87.40;;;;;;4984045;28;20280;-58
2020/12/26 03:01:06;;;;;;;3.75;1.40;;;4.80;87.20;;;;;;4978815;28;20094;-59
2020/12/26 03:03:32;;;;;;;1.77;1.40;;;4.70;87.10;;;;;;4990639;28;20529;-58
2020/12/26 03:05:58;;;;;;;1.95;1.52;;;4.70;87.10;;;;;;4969819;28;20031;-57
2020/12/26 03:08:23;;;;;;;1.65;1.20;;;4.70;87.10;;;;;;4973055;28;20039;-57
2020/12/26 03:10:49;;;;;;;2.40;1.52;;;4.80;87.20;;;;;;4970028;28;20041;-57
2020/12/26 03:13:14;;;;;;;3.97;1.95;;;4.70;87.10;;;;;;4985121;28;20045;-58
2020/12/26 03:15:40;;;;;;;3.90;1.65;;;4.70;87.20;;;;;;4984640;28;20037;-59
2020/12/26 03:18:05;;;;;;;2.15;1.58;;;4.70;87.20;;;;;;4988707;28;20033;-57
2020/12/26 03:20:31;;;;;;;1.92;1.45;;;4.70;87.20;;;;;;4979212;28;20459;-58
2020/12/26 03:22:57;;;;;;;2.35;1.45;;;4.70;87.20;;;;;;4971310;28;20463;-58
2020/12/26 03:25:22;;;;;;;1.77;1.48;;;4.60;87.10;;;;;;4969784;28;20038;-58
2020/12/26 03:27:48;;;;;;;1.30;1.20;;;4.60;87.20;;;;;;4975182;28;20479;-56
2020/12/26 03:30:13;;;;;;;2.47;1.50;;;4.60;87.30;;;;;;4974433;28;20042;-56
2020/12/26 03:32:39;;;;;;;1.25;0.95;;;4.60;87.30;;;;;;4983188;28;20030;-56
2020/12/26 03:35:04;;;;;;;2.00;1.30;;;4.60;87.20;;;;;;4973740;28;20050;-57
2020/12/26 03:37:30;;;;;;;1.70;1.50;;;4.60;87.30;;;;;;4975250;28;20027;-57
2020/12/26 03:39:56;;;;;;;2.05;1.20;;;4.60;87.40;;;;;;4991320;28;20049;-58
2020/12/26 03:42:22;;;;;;;1.63;1.50;;;4.50;87.40;;;;;;4990068;28;20023;-56
2020/12/26 03:44:47;;;;;;;2.05;1.52;;;4.60;87.50;;;;;;4978041;28;20061;-57
2020/12/26 03:47:13;;;;;;;1.73;1.48;;;4.50;87.40;;;;;;4971343;28;20061;-55
2020/12/26 03:49:38;;;;;;;2.13;1.50;;;4.50;87.40;;;;;;4971856;28;20427;-56
2020/12/26 03:52:04;;;;;;;2.60;1.63;;;4.60;87.50;;;;;;4972309;28;20229;-58
2020/12/26 03:54:29;;;;;;;1.10;1.00;;;4.50;87.60;;;;;;4985719;28;20033;-58
2020/12/26 03:56:55;;;;;;;1.77;1.48;;;4.50;87.60;;;;;;4990891;28;20042;-58
2020/12/26 03:59:20;;;;;;;2.13;1.30;;;4.50;87.50;;;;;;4978669;28;20491;-58
2020/12/26 04:01:46;;;;;;;2.40;1.38;;;4.40;87.30;;;;;;4975091;28;20039;-59
2020/12/26 04:04:13;;;;;;;2.28;1.60;;;4.40;87.40;;;;;;4983306;28;20022;-56
2020/12/26 04:06:40;;;;;;;2.25;1.45;;;4.40;87.50;;;;;;4984204;28;20027;-59
2020/12/26 04:09:05;;;;;;;2.03;1.50;;;4.40;87.50;;;;;;4973483;28;20030;-56
2020/12/26 04:11:31;;;;;;;3.97;1.50;;;4.40;87.50;;;;;;4973256;28;20115;-58
2020/12/26 04:13:56;;;;;;;1.98;1.48;;;4.40;87.50;;;;;;4979662;28;20048;-61
2020/12/26 04:16:22;;;;;;;1.58;1.25;;;4.40;87.50;;;;;;4982774;28;20169;-58
2020/12/26 04:18:47;;;;;;;1.88;1.50;;;4.40;87.50;;;;;;4983204;28;20022;-57
2020/12/26 04:21:13;;;;;;;2.55;1.67;;;4.30;87.50;;;;;;4984192;28;20390;-58
2020/12/26 04:23:38;;;;;;;2.92;1.52;;;4.30;87.50;;;;;;4977996;28;20050;-56
2020/12/26 04:26:08;;;;;;;2.33;1.42;;;4.30;87.60;;;;;;4977064;28;20101;-58
2020/12/26 04:28:33;;;;;;;1.65;1.52;;;4.30;87.60;;;;;;4977576;28;20062;-59
2020/12/26 04:30:58;;;;;;;1.52;1.40;;;4.30;87.80;;;;;;4982141;28;20074;-57
2020/12/26 04:33:24;;;;;;;1.40;1.30;;;4.20;87.70;;;;;;4972796;28;20042;-58
2020/12/26 04:35:49;;;;;;;1.50;1.25;;;4.30;87.80;;;;;;4984063;28;20030;-58
2020/12/26 04:38:15;;;;;;;3.08;1.40;;;4.20;87.80;;;;;;4973463;28;20027;-61
2020/12/26 04:40:42;;;;;;;1.52;1.38;;;4.30;87.80;;;;;;4971559;28;20047;-56
2020/12/26 04:43:07;;;;;;;2.42;1.52;;;4.20;87.70;;;;;;4975181;28;20488;-55
2020/12/26 04:45:33;;;;;;;1.77;1.30;;;4.20;87.70;;;;;;4979500;28;20125;-57
2020/12/26 04:48:02;;;;;;;1.92;1.50;;;4.20;87.80;;;;;;4988638;28;20037;-57
2020/12/26 04:50:29;;;;;;;2.47;1.40;;;4.20;87.80;;;;;;4939079;28;20463;-58
2020/12/26 04:52:59;;;;;;;2.45;1.55;;;4.20;87.70;;;;;;4967077;28;20042;-56
2020/12/26 04:55:34;;;;;;;1.42;1.30;;;4.20;87.80;;;;;;4986943;28;20482;-59
2020/12/26 04:58:09;;;;;;;2.22;1.60;;;4.20;87.80;;;;;;4987385;28;20027;-56
2020/12/26 05:00:35;;;;;;;1.52;1.42;;;4.20;87.80;;;;;;4981440;28;20032;-56
2020/12/26 05:03:09;;;;;;;1.65;1.52;;;4.10;87.80;;;;;;4976454;28;20022;-58
2020/12/26 05:05:35;;;;;;;2.00;1.17;;;4.10;87.80;;;;;;4980432;28;20037;-57
2020/12/26 05:08:04;;;;;;;1.73;1.40;;;4.10;87.70;;;;;;4988040;28;20430;-57
2020/12/26 05:10:30;;;;;;;1.75;1.30;;;4.10;87.70;;;;;;4972632;28;20502;-56
2020/12/26 05:12:56;;;;;;;2.28;1.50;;;4.10;87.80;;;;;;4984971;28;20062;-56
2020/12/26 05:15:22;;;;;;;1.23;1.13;;;4.20;87.80;;;;;;4980065;28;20555;-56
2020/12/26 05:17:47;;;;;;;1.67;1.45;;;4.10;87.80;;;;;;4976782;28;20031;-55
2020/12/26 05:20:13;;;;;;;1.70;1.23;;;4.10;87.90;;;;;;4992504;28;20066;-56
2020/12/26 05:22:38;;;;;;;1.20;1.05;;;4.10;87.80;;;;;;4981826;28;20054;-57
2020/12/26 05:25:08;;;;;;;2.65;1.80;;;4.00;87.90;;;;;;4980329;28;20629;-57
2020/12/26 05:27:34;;;;;;;2.45;1.67;;;4.00;87.90;;;;;;4978081;28;20084;-58
2020/12/26 05:29:59;;;;;;;2.45;1.60;;;4.00;88.00;;;;;;4968622;28;20043;-57
2020/12/26 05:32:25;;;;;;;2.63;1.50;;;4.00;87.90;;;;;;4987058;28;20503;-57
2020/12/26 05:34:50;;;;;;;4.05;1.40;;;4.00;87.90;;;;;;4971627;28;20030;-56
2020/12/26 05:37:20;;;;;;;1.67;1.30;;;4.00;88.00;;;;;;4988703;28;20081;-59
2020/12/26 05:39:45;;;;;;;1.33;1.23;;;4.00;88.10;;;;;;4988114;28;20019;-56
2020/12/26 05:42:18;;;;;;;1.45;1.23;;;4.10;88.20;;;;;;4989587;28;20077;-56
2020/12/26 05:44:43;;;;;;;1.67;1.30;;;4.00;88.10;;;;;;4979074;28;20057;-56
2020/12/26 05:47:09;;;;;;;1.92;1.30;;;4.00;88.20;;;;;;4988782;28;20093;-58
2020/12/26 05:49:36;;;;;;;2.08;1.40;;;4.00;88.10;;;;;;4994210;28;20490;-57
2020/12/26 05:52:07;;;;;;;1.60;1.35;;;4.00;88.20;;;;;;4973082;28;20050;-56
2020/12/26 05:54:32;;;;;;;1.85;1.33;;;4.10;88.30;;;;;;5004539;28;20027;-58
2020/12/26 05:57:08;;;;;;;2.20;1.55;;;4.00;88.10;;;;;;4990579;28;20409;-56
2020/12/26 05:59:34;;;;;;;2.72;1.27;;;3.90;88.10;;;;;;4990418;28;20515;-58
2020/12/26 06:02:26;;;;;;;1.60;1.17;;;4.00;88.20;;;;;;4975621;28;20374;-59
2020/12/26 06:04:58;;;;;;;1.75;1.40;;;3.90;88.20;;;;;;4990814;28;20029;-58
2020/12/26 06:07:33;;;;;;;1.50;1.33;;;4.00;88.20;;;;;;4991869;28;20421;-57
2020/12/26 06:10:00;;;;;;;1.30;1.20;;;4.00;88.20;;;;;;4971046;28;20030;-58
2020/12/26 06:12:28;;;;;;;1.52;1.33;;;3.90;88.10;;;;;;5004548;28;20402;-59
2020/12/26 06:14:54;;;;;;;1.40;1.10;;;3.90;88.20;;;;;;4980190;28;20583;-56
2020/12/26 06:17:33;;;;;;;3.13;1.50;;;3.90;88.20;;;;;;4991495;28;20533;-57
2020/12/26 06:20:04;;;;;;;2.28;1.38;;;3.90;88.20;;;;;;4951222;28;20479;-57
2020/12/26 06:22:45;;;;;;;1.40;1.17;;;3.90;88.20;;;;;;4989793;28;20030;-55
2020/12/26 06:25:18;;;;;;;1.70;1.40;;;4.00;88.30;;;;;;4989735;28;20490;-62
2020/12/26 06:28:01;;;;;;;1.40;1.13;;;3.90;88.10;;;;;;4991892;28;20033;-58
2020/12/26 06:30:27;;;;;;;2.05;1.50;;;3.90;88.20;;;;;;4989761;28;20076;-57
2020/12/26 06:32:54;;;;;;;1.50;1.40;;;3.90;88.20;;;;;;4992449;28;20022;-58
2020/12/26 06:35:20;;;;;;;2.83;1.55;;;3.90;88.10;;;;;;4990194;28;20054;-55
2020/12/26 06:37:46;;;;;;;1.92;1.30;;;3.90;88.10;;;;;;4990618;28;20080;-56
2020/12/26 06:40:28;;;;;;;1.67;1.30;;;3.90;88.10;;;;;;4988138;28;20034;-58
2020/12/26 06:42:54;;;;;;;2.33;1.50;;;3.90;88.10;;;;;;4975329;28;20655;-58
2020/12/26 06:45:29;;;;;;;1.63;1.30;;;3.90;88.10;;;;;;4987844;28;20230;-56
2020/12/26 06:47:55;;;;;;;;;;;3.90;88.10;;;;;;4992533;28;20033;-56
2020/12/26 06:50:24;;;;;;;2.58;1.45;;;3.90;88.10;;;;;;4990299;28;19909;-56
2020/12/26 06:52:50;;;;;;;1.38;1.27;;;3.90;88.10;;;;;;4987829;28;20509;-58
2020/12/26 06:55:40;;;;;;;1.33;1.20;;;3.90;88.20;;;;;;4984540;28;20069;-56
2020/12/26 06:58:10;;;;;;;2.67;1.40;;;3.80;88.30;;;;;;4989548;28;20026;-56
2020/12/26 07:00:36;;;;;;;4.75;1.48;;;3.80;88.20;;;;;;4976344;28;20018;-58
2020/12/26 07:03:28;;;;;;;1.85;1.45;;;3.80;88.30;;;;;;4977412;28;20025;-57
2020/12/26 07:05:54;;;;;;;2.08;1.27;;;3.90;88.30;;;;;;4977678;28;20370;-58
2020/12/26 07:08:38;;;;;;;1.73;1.42;;;3.90;88.30;;;;;;4957563;28;20035;-56
2020/12/26 07:11:21;;;;;;;2.25;1.30;;;3.90;88.30;;;;;;4991806;28;20101;-58
2020/12/26 07:13:48;;;;;;;2.28;1.60;;;3.80;88.30;;;;;;4990492;28;20033;-58
2020/12/26 07:16:42;;;;;;;1.60;1.33;;;3.90;88.50;;;;;;4986936;28;20500;-58
2020/12/26 07:19:19;;;;;;;1.65;1.50;;;3.80;88.50;;;;;;4990800;28;20050;-58
2020/12/26 07:21:57;;;;;;;1.48;1.33;;;3.80;88.40;;;;;;4991694;28;20034;-56
2020/12/26 07:24:24;;;;;;;1.80;1.15;;;4.00;89.10;;;;;;4989179;28;20023;-58
2020/12/26 07:26:50;;;;;;;1.73;1.30;;;3.90;88.40;;;;;;4990162;28;20057;-58
2020/12/26 07:29:26;;;;;;;1.48;1.20;;;3.90;88.40;;;;;;4990142;28;20035;-58
2020/12/26 07:31:52;;;;;;;1.95;1.50;;;3.90;88.40;;;;;;4985627;28;20023;-57
2020/12/26 07:34:37;;;;;;;1.83;1.30;;;3.80;88.30;;;;;;4987954;28;20109;-57
2020/12/26 07:37:03;;;;;;;3.08;1.75;;;3.90;88.40;;;;;;4978790;28;20026;-59
2020/12/26 07:39:28;;;;;;;2.10;1.33;;;3.90;88.40;;;;;;4973169;28;20031;-56
2020/12/26 07:41:54;;;;;;;1.48;1.20;;;3.80;88.40;;;;;;4973670;28;20030;-57
2020/12/26 07:44:20;;;;;;;2.08;1.42;;;3.80;88.40;;;;;;4974295;28;20090;-55
2020/12/26 07:46:45;;;;;;;2.08;1.40;;;3.90;88.40;;;;;;4955013;28;20030;-59
2020/12/26 07:49:14;;;;;;;1.58;1.38;;;3.80;88.20;;;;;;4984728;28;20027;-60
2020/12/26 07:51:40;;;;;;;1.92;1.67;;;3.90;88.30;;;;;;4976411;28;20501;-57
2020/12/26 07:54:05;;;;;;;1.52;1.20;;;3.80;88.20;;;;;;4973497;28;20042;-58
2020/12/26 07:56:31;;;;;;;2.17;1.40;;;3.80;88.20;;;;;;4979376;28;20049;-56
2020/12/26 07:58:56;;;;;;;2.00;1.40;;;3.80;88.30;;;;;;4986377;28;20026;-63
2020/12/26 08:01:25;;;;;;;1.70;1.45;;;3.80;88.30;;;;;;4973199;28;20098;-56
2020/12/26 08:04:03;;;;;;;2.10;1.60;;;3.80;88.20;;;;;;4985884;28;20028;-58
2020/12/26 08:06:30;;;;;;;2.42;1.50;;;3.80;88.20;;;;;;4966904;28;20019;-56
2020/12/26 08:08:56;;;;;;;2.35;1.63;;;3.80;88.10;;;;;;4971067;28;20395;-58
2020/12/26 08:11:24;;;;;;;1.95;1.65;;;3.80;88.00;;;;;;4956450;28;20033;-56
2020/12/26 08:14:02;;;;;;;3.85;1.55;;;3.80;87.90;;;;;;4989450;28;20083;-56
2020/12/26 08:16:28;;;;;;;2.25;1.70;;;3.80;87.80;;;;;;4985850;28;20030;-55
2020/12/26 08:18:53;;;;;;;2.60;1.77;;;3.90;87.70;;;;;;4984919;28;20076;-56
2020/12/26 08:21:22;;;;;;;2.15;1.83;;;3.90;87.70;;;;;;4980763;28;20030;-57
2020/12/26 08:23:57;;;;;;;3.63;1.50;;;3.80;87.60;;;;;;4980750;28;20053;-57
2020/12/26 08:26:23;;;;;;;2.33;1.83;;;3.90;87.60;;;;;;4989717;28;20037;-56
2020/12/26 08:28:49;;;;;;;1.83;1.70;;;3.90;87.50;;;;;;4984781;28;20030;-59
2020/12/26 08:31:15;;;;;;;1.65;1.55;;;3.90;87.40;;;;;;4989136;28;20553;-59
2020/12/26 08:33:46;;;;;;;2.22;1.73;;;3.90;87.40;;;;;;4983650;28;20062;-59
2020/12/26 08:36:21;;;;;;;4.35;1.90;;;3.80;87.40;;;;;;4964365;28;20085;-59
2020/12/26 08:38:59;;;;;;;2.17;1.70;;;3.80;87.20;;;;;;4984028;28;20026;-58
2020/12/26 08:41:24;;;;;;;4.35;1.80;;;3.80;87.10;;;;;;4985307;28;20072;-59
2020/12/26 08:43:50;;;;;;;2.45;1.60;;;3.90;87.10;;;;;;4986249;28;20441;-57
2020/12/26 08:46:17;;;;;;;1.92;1.70;;;3.90;87.70;;;;;;4988817;28;20080;-58
2020/12/26 08:48:42;;;;;;;3.38;2.20;;;3.90;87.00;;;;;;4983439;28;20030;-58
2020/12/26 08:51:16;;;;;;;2.45;1.83;;;3.90;86.80;;;;;;5002039;28;20085;-57
2020/12/26 08:53:41;;;;;;;2.58;2.05;;;3.90;86.80;;;;;;4989066;28;20030;-57
2020/12/26 08:56:07;;;;;;;2.85;1.80;;;3.90;86.80;;;;;;4989572;28;20367;-56
2020/12/26 08:58:32;;;;;;;3.97;2.30;;;3.80;86.80;;;;;;4983925;28;20478;-58
2020/12/26 09:00:59;;;;;;;2.33;2.13;;;3.80;86.70;;;;;;4988014;28;20046;-56
2020/12/26 09:03:29;;;;;;;2.13;1.88;;;3.90;86.90;;;;;;4983495;28;20541;-57
2020/12/26 09:05:55;;;;;;;2.17;1.80;;;3.90;86.80;;;;;;4980785;28;20389;-56
2020/12/26 09:08:28;;;;;;;4.05;2.20;;;3.90;86.70;;;;;;4964048;28;20478;-57
2020/12/26 09:11:12;;;;;;;5.55;2.22;;;3.90;86.50;;;;;;4982510;28;20034;-56
2020/12/26 09:13:39;;;;;;;4.03;1.95;;;3.90;86.50;;;;;;4979377;28;20027;-55
2020/12/26 09:16:06;;;;;;;2.33;1.95;;;3.90;86.60;;;;;;4961598;28;20679;-56
2020/12/26 09:18:42;;;;;;;3.63;2.53;;;3.90;86.70;;;;;;4988855;28;20470;-59
2020/12/26 09:21:08;;;;;;;2.10;1.90;;;3.90;86.60;;;;;;4988326;28;20070;-56
2020/12/26 09:23:35;;;;;;;2.92;2.20;;;3.90;86.50;;;;;;5007878;28;20058;-57
2020/12/26 09:26:14;;;;;;;2.63;2.30;;;4.00;86.50;;;;;;4981330;28;20105;-59
2020/12/26 09:28:48;;;;;;;3.17;2.20;;;3.90;86.30;;;;;;4991008;28;20034;-58
2020/12/26 09:31:14;;;;;;;3.00;2.33;;;3.90;86.40;;;;;;4982140;28;20022;-61
2020/12/26 09:33:40;;;;;;;3.30;2.35;;;4.00;86.50;;;;;;4968797;28;20065;-57
2020/12/26 09:36:08;;;;;;;3.60;2.20;;;3.90;86.40;;;;;;4981968;28;20494;-59
2020/12/26 09:38:33;;;;;;;2.72;2.08;;;4.00;86.40;;;;;;4967035;28;20669;-57
2020/12/26 09:41:18;;;;;;;2.80;2.35;;;4.00;86.30;;;;;;4986509;28;20286;-57
2020/12/26 09:43:45;;;;;;;2.28;1.80;;;4.00;86.30;;;;;;4985884;28;20262;-58
2020/12/26 09:46:10;;;;;;;3.03;2.30;;;4.00;86.20;;;;;;4992243;28;20015;-56
2020/12/26 09:48:36;;;;;;;3.15;1.92;;;4.00;86.10;;;;;;4992084;28;20025;-57
2020/12/26 09:51:01;;;;;;;3.42;2.38;;;4.00;86.10;;;;;;4992441;28;20053;-58
2020/12/26 09:53:27;;;;;;;3.67;2.47;;;4.00;86.10;;;;;;4991857;28;20422;-57
2020/12/26 09:55:52;;;;;;;3.65;2.33;;;4.00;86.00;;;;;;4989692;28;20363;-57
2020/12/26 09:58:18;;;;;;;2.20;1.90;;;4.00;86.10;;;;;;4980854;28;20031;-58
2020/12/26 10:00:44;;;;;;;3.17;2.40;;;3.90;85.90;;;;;;4983179;28;20031;-58
2020/12/26 10:03:09;;;;;;;4.68;2.55;;;3.90;85.90;;;;;;4985296;28;20042;-57
2020/12/26 10:05:35;;;;;;;2.55;1.80;;;4.00;85.90;;;;;;4986464;28;20026;-58
2020/12/26 10:08:00;;;;;;;3.15;2.10;;;4.00;85.70;;;;;;4979751;28;20076;-57
2020/12/26 10:10:26;;;;;;;2.50;2.30;;;4.00;85.60;;;;;;4986224;28;20454;-56
2020/12/26 10:12:52;;;;;;;2.58;2.03;;;4.00;85.60;;;;;;4989461;28;20041;-56
2020/12/26 10:15:18;;;;;;;4.47;2.30;;;4.00;85.50;;;;;;4984546;28;20030;-57
2020/12/26 10:17:46;;;;;;;3.08;2.30;;;4.00;85.30;;;;;;4982590;28;20030;-56
2020/12/26 10:20:12;;;;;;;3.40;2.13;;;4.00;85.40;;;;;;4984829;28;20062;-56
2020/12/26 10:22:37;;;;;;;2.92;2.15;;;4.00;85.20;;;;;;4987801;28;20073;-58
2020/12/26 10:25:03;;;;;;;2.67;2.15;;;4.00;85.20;;;;;;4983681;28;20534;-57
2020/12/26 10:27:28;;;;;;;3.28;2.60;;;4.10;85.20;;;;;;4991526;28;20030;-59
2020/12/26 10:29:54;;;;;;;2.88;2.35;;;4.00;85.30;;;;;;4986400;28;20030;-57
2020/12/26 10:32:19;;;;;;;3.75;2.15;;;4.00;85.00;;;;;;4981177;28;20110;-56
2020/12/26 10:34:45;;;;;;;2.75;2.25;;;4.00;85.00;;;;;;4989105;28;20048;-60
2020/12/26 10:37:14;;;;;;;2.50;1.88;;;4.00;84.90;;;;;;4987875;28;20109;-61
2020/12/26 10:39:40;;;;;;;3.35;2.35;;;4.00;84.80;;;;;;4988207;28;20025;-58
2020/12/26 10:42:05;;;;;;;3.63;2.42;;;4.00;84.90;;;;;;4980544;28;20026;-56
2020/12/26 10:44:31;;;;;;;3.22;2.00;;;4.00;84.60;;;;;;4977157;28;20043;-59
2020/12/26 10:46:56;;;;;;;5.28;2.10;;;4.00;84.60;;;;;;4989591;28;20034;-57
2020/12/26 10:49:22;;;;;;;3.90;2.20;;;4.10;84.50;;;;;;4971190;28;20074;-57
2020/12/26 10:51:48;;;;;;;3.83;2.22;;;4.10;84.50;;;;;;4989859;28;20045;-57
2020/12/26 10:54:14;;;;;;;2.58;2.00;;;4.10;84.20;;;;;;4991062;28;20470;-58
2020/12/26 10:56:45;;;;;;;3.38;2.17;;;4.10;84.20;;;;;;4988190;28;20037;-58
2020/12/26 10:59:10;;;;;;;3.38;2.30;;;4.10;84.20;;;;;;4981772;28;20129;-58
2020/12/26 11:01:36;;;;;;;2.65;2.00;;;4.10;84.20;;;;;;4987376;28;20494;-56
2020/12/26 11:04:01;;;;;;;2.97;2.50;;;4.00;84.00;;;;;;4991544;28;20045;-57
2020/12/26 11:06:27;;;;;;;3.88;2.25;;;4.00;84.00;;;;;;4982987;28;20027;-58
2020/12/26 11:08:52;;;;;;;3.25;1.88;;;4.00;84.00;;;;;;4990906;28;20082;-57
2020/12/26 11:11:18;;;;;;;2.47;2.17;;;4.10;84.00;;;;;;4987398;28;20490;-58
2020/12/26 11:13:43;;;;;;;2.50;2.08;;;4.00;83.80;;;;;;4989547;28;20027;-57
2020/12/26 11:16:15;;;;;;;2.55;2.28;;;4.10;83.80;;;;;;4989478;28;20113;-58
2020/12/26 11:18:42;;;;;;;10.50;2.42;;;4.00;83.60;;;;;;4990983;28;20385;-55
2020/12/26 11:21:08;;;;;;;2.40;2.20;;;4.10;83.60;;;;;;4986972;28;20014;-57
2020/12/26 11:23:33;;;;;;;3.30;2.20;;;4.10;83.50;;;;;;5003409;28;20038;-57
2020/12/26 11:25:59;;;;;;;2.80;2.00;;;4.10;83.70;;;;;;4989801;28;20034;-58
2020/12/26 11:28:24;;;;;;;2.15;1.92;;;4.10;83.60;;;;;;4988001;28;20022;-58
2020/12/26 11:30:50;;;;;;;4.28;2.35;;;4.10;83.40;;;;;;4998887;28;20030;-56
2020/12/26 11:33:15;;;;;;;3.03;2.17;;;4.10;83.90;;;;;;4989711;28;20050;-58
2020/12/26 11:35:41;;;;;;;3.28;2.53;;;4.10;83.40;;;;;;4989456;28;20069;-58
2020/12/26 11:38:06;;;;;;;2.83;2.22;;;4.10;83.20;;;;;;4989281;28;20121;-59
2020/12/26 11:40:32;;;;;;;3.63;2.20;;;4.10;83.20;;;;;;4990291;28;20780;-58
2020/12/26 11:42:57;;;;;;;3.42;2.60;;;4.10;83.20;;;;;;4988953;28;20061;-56
2020/12/26 11:45:23;;;;;;;3.85;2.38;;;4.10;83.30;;;;;;4990392;28;20085;-59
2020/12/26 11:47:48;;;;;;;3.80;2.20;;;4.10;83.20;;;;;;4990844;28;20026;-58
2020/12/26 11:50:14;;;;;;;2.67;2.10;;;4.10;83.20;;;;;;4987982;28;20031;-56
2020/12/26 11:52:39;;;;;;;3.15;2.38;;;4.20;83.10;;;;;;4973285;28;20501;-56
2020/12/26 11:55:05;;;;;;;3.53;2.40;;;4.10;82.80;;;;;;4988608;28;20117;-58
2020/12/26 11:57:30;;;;;;;3.67;2.38;;;4.10;82.90;;;;;;4990190;28;20032;-57
2020/12/26 11:59:56;;;;;;;2.30;2.10;;;4.10;82.70;;;;;;4984831;28;20022;-56
2020/12/26 12:02:21;;;;;;;3.30;2.10;;;4.10;82.60;;;;;;4986541;28;20483;-58
2020/12/26 12:04:47;;;;;;;2.20;2.00;;;4.10;82.50;;;;;;4985202;28;20363;-59
2020/12/26 12:07:13;;;;;;;2.50;2.17;;;4.10;82.30;;;;;;5003601;28;20026;-56
2020/12/26 12:09:38;;;;;;;2.55;2.00;;;4.20;82.20;;;;;;4991025;28;20080;-58
2020/12/26 12:12:04;;;;;;;2.70;2.28;;;4.10;82.00;;;;;;4986753;28;20053;-56
2020/12/26 12:14:29;;;;;;;4.28;2.05;;;4.20;82.00;;;;;;4984908;28;20165;-58
2020/12/26 12:16:55;;;;;;;3.38;2.40;;;4.20;82.00;;;;;;4988609;28;20119;-58
2020/12/26 12:19:20;;;;;;;2.60;2.20;;;4.10;81.50;;;;;;4990575;28;20494;-56
2020/12/26 12:21:46;;;;;;;2.83;2.05;;;4.20;81.30;;;;;;4988452;28;20030;-58
2020/12/26 12:24:12;;;;;;;2.63;1.90;;;4.20;81.50;;;;;;4985187;28;20467;-57
2020/12/26 12:26:37;;;;;;;1.98;1.70;;;4.20;81.50;;;;;;4986799;28;20113;-56
2020/12/26 12:29:03;;;;;;;2.42;1.88;;;4.20;81.40;;;;;;4988495;28;20022;-57
2020/12/26 12:31:35;;;;;;;2.30;1.90;;;4.20;81.40;;;;;;4987251;28;20042;-56
2020/12/26 12:34:01;;;;;;;2.38;1.92;;;4.10;81.00;;;;;;4963774;28;20035;-57
2020/12/26 12:36:26;;;;;;;2.67;1.88;;;4.20;81.20;;;;;;4986182;28;20097;-58
2020/12/26 12:38:52;;;;;;;2.28;1.70;;;4.10;81.20;;;;;;4988843;28;20521;-58
2020/12/26 12:41:17;;;;;;;2.40;1.88;;;4.20;81.00;;;;;;4986636;28;20089;-59
2020/12/26 12:43:43;;;;;;;3.70;2.40;;;4.20;80.90;;;;;;4967543;28;20133;-58
2020/12/26 12:46:10;;;;;;;3.78;2.00;;;4.20;80.90;;;;;;4981788;28;20046;-58
2020/12/26 12:48:35;;;;;;;3.03;1.95;;;4.10;80.90;;;;;;4984319;28;20088;-57
2020/12/26 12:51:01;;;;;;;2.63;2.10;;;4.20;81.00;;;;;;4982553;28;20018;-59
2020/12/26 12:53:26;;;;;;;2.90;1.85;;;4.20;80.70;;;;;;4983047;28;20076;-59
2020/12/26 12:55:52;;;;;;;3.60;2.00;;;4.20;80.50;;;;;;4980655;28;20073;-57
2020/12/26 12:58:17;;;;;;;2.33;2.10;;;4.20;80.70;;;;;;4986624;28;20437;-57